METAR Data
IDs: Format: Raw Decoded Include TAF

Data at: 1525 UTC 21 Sep 2018

KLIC 211455Z AUTO 00000KT 10SM CLR 12/02 A3040 RMK AO2 SLP244 T01220022 51015
KLIC 211355Z AUTO 35003KT 10SM CLR 09/04 A3039 RMK AO2 SLP246 T00890039
KLIC 211255Z AUTO 30005KT 10SM CLR 05/04 A3037 RMK AO2 SLP240 T00500039
KLIC 211155Z AUTO 32010KT 10SM CLR 05/04 A3035 RMK AO2 SLP224 T00500044 10122 20050 53025
KLIC 211055Z AUTO 29009KT 10SM CLR 06/06 A3032 RMK AO2 SLP213 T00610056
KLIC 210955Z AUTO 31007KT 10SM CLR 08/07 A3028 RMK AO2 SLP198 T00780072
KLIC 210925Z AUTO 35008KT 10SM FEW009 09/08 A3027 RMK AO2 T00890083
KLIC 210855Z AUTO 33009KT 10SM BKN010 10/09 A3026 RMK AO2 SLP185 T01000094 53024
KLIC 210755Z AUTO 01014KT 10SM CLR 11/09 A3022 RMK AO2 SLP171 T01110089
KLIC 210655Z AUTO 02015KT 10SM CLR 12/09 A3020 RMK AO2 SLP164 T01170089 402720117
KLIC 210555Z AUTO 03014G23KT 10SM CLR 12/09 A3018 RMK AO2 PK WND 05029/0501 SLP160 T01220094 10256 20122 51031
KLIC 210455Z AUTO 05019G27KT 10SM CLR 14/08 A3015 RMK AO2 PK WND 05028/0445 SLP148 T01390078
KLIC 210355Z AUTO 01007KT 10SM CLR 13/06 A3010 RMK AO2 SLP137 T01330061
KLIC 210255Z AUTO 06008KT 10SM CLR 18/06 A3007 RMK AO2 SLP120 T01780061 53038
KLIC 210155Z AUTO 00000KT 10SM CLR 19/08 A3002 RMK AO2 SLP103 T01890083
KLIC 210055Z AUTO 00000KT 10SM CLR 21/04 A2997 RMK AO2 SLP084 T02110039
KLIC 202355Z AUTO 10SM CLR 26/03 A2994 RMK AO2 SLP064 T02560028 10272 20211 53009
KLIC 202255Z AUTO 02009KT 10SM CLR 26/02 A2992 RMK AO2 SLP056 T02610022
KLIC 202155Z AUTO VRB04KT 10SM SCT090 26/04 A2991 RMK AO2 SLP054 T02560044
KLIC 202055Z AUTO 00000KT 10SM FEW075 25/06 A2991 RMK AO2 SLP053 T02500061 56012
KLIC 201955Z AUTO 24009G19KT 220V280 10SM FEW065 24/08 A2992 RMK AO2 SLP059 T02440078
KLIC 201855Z AUTO 17012KT 10SM CLR 23/09 A2993 RMK AO2 SLP066 T02330094
KLIC 201755Z AUTO 20011KT 10SM CLR 21/09 A2995 RMK AO2 SLP075 T02110094 10217 20139 51001
KLIC 201655Z AUTO 19010KT 10SM SCT120 22/08 A2995 RMK AO2 SLP072 T02170083
KLIC 201555Z AUTO 20003KT 10SM FEW060 19/11 A2997 RMK AO2 SLP082 T01890111
KLIC 201455Z AUTO 00000KT 10SM SCT070 BKN100 BKN110 16/13 A2995 RMK AO2 SLP079 T01610133 53006
KLIC 201355Z AUTO 05003KT 10SM OVC085 15/14 A2994 RMK AO2 SLP071 T01500139
KLIC 201255Z AUTO 35005KT 10SM CLR 14/13 A2991 RMK AO2 SLP059 T01390133
KLIC 201155Z AUTO 32004KT 10SM FEW075 SCT090 14/14 A2992 RMK AO2 SLP056 60001 70001 T01440139 10156 20144 58001
KLIC 201055Z AUTO 28006KT 10SM FEW085 15/14 A2993 RMK AO2 RAE02B16E30 SLP060 P0001 T01500144
KLIC 201004Z AUTO 28010KT 10SM OVC060 16/15 A2995 RMK AO2 RAE02 P0000 T01560150
KLIC 200955Z AUTO 28014G19KT 10SM VCTS -RA OVC065 16/15 A2995 RMK AO2 RAB47 SLP060 P0000 T01560150
KLIC 200855Z AUTO 28006KT 10SM FEW070 SCT120 15/14 A2993 RMK AO2 SLP053 T01500144 55007
KLIC 200755Z AUTO 00000KT 10SM SCT120 15/14 A2991 RMK AO2 SLP048 T01500144
KLIC 200655Z AUTO 33006KT 10SM FEW065 SCT110 14/14 A2992 RMK AO2 SLP050 T01440139 403110100
KLIC 200555Z AUTO 30006KT 10SM CLR 16/15 A2995 RMK AO2 LTG DSNT W SLP060 60000 T01560150 10278 20156 51002
KLIC 200455Z AUTO 33009KT 10SM BKN110 16/15 A2995 RMK AO2 RAE13 SLP061 P0000 T01560150
KLIC 200355Z AUTO 02015KT 9SM -RA SCT050 BKN070 OVC085 16/16 A2995 RMK AO2 PK WND 36029/0259 LTG DSNT E AND SE RAB42 SLP063 P0000 T01610156